sensor_id;sensor_type;location;lat;lon;timestamp;pressure;altitude;pressure_sealevel;temperature;humidity
58979;BME280;44763;50.464;30.612;2023-05-20T00:00:22;101100.80;;;16.53;98.72
58979;BME280;44763;50.464;30.612;2023-05-20T00:02:49;101095.09;;;16.47;99.43
58979;BME280;44763;50.464;30.612;2023-05-20T00:05:16;101092.41;;;16.40;99.66
58979;BME280;44763;50.464;30.612;2023-05-20T00:07:43;101091.77;;;16.32;99.96
58979;BME280;44763;50.464;30.612;2023-05-20T00:10:10;101093.78;;;16.17;100.00
58979;BME280;44763;50.464;30.612;2023-05-20T00:12:37;101094.82;;;16.08;100.00
58979;BME280;44763;50.464;30.612;2023-05-20T00:15:04;101091.26;;;16.02;100.00
58979;BME280;44763;50.464;30.612;2023-05-20T00:17:31;101088.85;;;15.99;100.00
58979;BME280;44763;50.464;30.612;2023-05-20T00:19:58;101089.20;;;15.96;100.00
58979;BME280;44763;50.464;30.612;2023-05-20T00:22:25;101091.25;;;15.93;100.00
58979;BME280;44763;50.464;30.612;2023-05-20T00:24:52;101086.98;;;15.90;100.00
58979;BME280;44763;50.464;30.612;2023-05-20T00:27:19;101089.27;;;15.89;100.00
58979;BME280;44763;50.464;30.612;2023-05-20T00:29:45;101089.38;;;15.87;100.00
58979;BME280;44763;50.464;30.612;2023-05-20T00:32:12;101086.85;;;15.82;100.00
58979;BME280;44763;50.464;30.612;2023-05-20T00:34:42;101084.65;;;15.78;100.00
58979;BME280;44763;50.464;30.612;2023-05-20T00:37:08;101086.52;;;15.79;100.00
58979;BME280;44763;50.464;30.612;2023-05-20T00:39:35;101085.06;;;15.81;100.00
58979;BME280;44763;50.464;30.612;2023-05-20T00:42:02;101089.01;;;15.85;100.00
58979;BME280;44763;50.464;30.612;2023-05-20T00:44:29;101088.39;;;15.83;100.00
58979;BME280;44763;50.464;30.612;2023-05-20T00:46:56;101091.48;;;15.82;100.00
58979;BME280;44763;50.464;30.612;2023-05-20T00:49:23;101090.46;;;15.88;100.00
58979;BME280;44763;50.464;30.612;2023-05-20T00:51:50;101089.19;;;15.92;100.00
58979;BME280;44763;50.464;30.612;2023-05-20T00:54:17;101087.40;;;15.92;100.00
58979;BME280;44763;50.464;30.612;2023-05-20T00:56:45;101087.88;;;15.95;100.00
58979;BME280;44763;50.464;30.612;2023-05-20T00:59:12;101088.66;;;16.02;100.00
58979;BME280;44763;50.464;30.612;2023-05-20T01:01:39;101089.00;;;16.10;100.00
58979;BME280;44763;50.464;30.612;2023-05-20T01:04:06;101088.27;;;16.11;100.00
58979;BME280;44763;50.464;30.612;2023-05-20T01:06:33;101086.95;;;16.10;100.00
58979;BME280;44763;50.464;30.612;2023-05-20T01:09:00;101081.50;;;16.12;100.00
58979;BME280;44763;50.464;30.612;2023-05-20T01:11:47;101083.98;;;16.12;100.00
58979;BME280;44763;50.464;30.612;2023-05-20T01:14:17;101079.02;;;16.05;100.00
58979;BME280;44763;50.464;30.612;2023-05-20T01:16:47;101079.05;;;15.90;100.00
58979;BME280;44763;50.464;30.612;2023-05-20T01:19:30;101077.67;;;15.88;100.00
58979;BME280;44763;50.464;30.612;2023-05-20T01:22:05;101072.21;;;15.82;100.00
58979;BME280;44763;50.464;30.612;2023-05-20T01:24:33;101076.02;;;15.85;100.00
58979;BME280;44763;50.464;30.612;2023-05-20T01:27:00;101077.48;;;15.93;100.00
58979;BME280;44763;50.464;30.612;2023-05-20T01:29:26;101079.72;;;16.00;100.00
58979;BME280;44763;50.464;30.612;2023-05-20T01:31:54;101082.95;;;16.03;100.00
58979;BME280;44763;50.464;30.612;2023-05-20T01:34:23;101081.44;;;15.87;100.00
58979;BME280;44763;50.464;30.612;2023-05-20T01:36:51;101080.90;;;15.86;100.00
58979;BME280;44763;50.464;30.612;2023-05-20T01:39:19;101078.89;;;15.98;100.00
58979;BME280;44763;50.464;30.612;2023-05-20T01:41:48;101067.44;;;15.99;99.61
58979;BME280;44763;50.464;30.612;2023-05-20T01:44:15;101070.46;;;16.05;98.71
58979;BME280;44763;50.464;30.612;2023-05-20T01:46:48;101084.52;;;16.09;98.23
58979;BME280;44763;50.464;30.612;2023-05-20T01:49:14;101083.19;;;15.99;98.38
58979;BME280;44763;50.464;30.612;2023-05-20T01:51:43;101084.35;;;15.95;98.32
58979;BME280;44763;50.464;30.612;2023-05-20T01:54:10;101084.92;;;15.94;97.89
58979;BME280;44763;50.464;30.612;2023-05-20T01:56:36;101086.82;;;15.90;97.88
58979;BME280;44763;50.464;30.612;2023-05-20T01:59:03;101088.06;;;15.90;97.85
58979;BME280;44763;50.464;30.612;2023-05-20T02:01:30;101085.55;;;15.91;97.54
58979;BME280;44763;50.464;30.612;2023-05-20T02:03:57;101089.14;;;15.91;97.24
58979;BME280;44763;50.464;30.612;2023-05-20T02:06:24;101090.26;;;15.92;96.82
58979;BME280;44763;50.464;30.612;2023-05-20T02:08:50;101087.09;;;15.75;97.64
58979;BME280;44763;50.464;30.612;2023-05-20T02:11:17;101084.54;;;15.68;97.94
58979;BME280;44763;50.464;30.612;2023-05-20T02:13:44;101084.61;;;15.68;97.74
58979;BME280;44763;50.464;30.612;2023-05-20T02:16:11;101088.41;;;15.72;97.15
58979;BME280;44763;50.464;30.612;2023-05-20T02:18:38;101090.31;;;15.74;96.76
58979;BME280;44763;50.464;30.612;2023-05-20T02:21:04;101084.58;;;15.69;96.89
58979;BME280;44763;50.464;30.612;2023-05-20T02:23:31;101084.23;;;15.61;97.28
58979;BME280;44763;50.464;30.612;2023-05-20T02:25:58;101082.45;;;15.48;97.65
58979;BME280;44763;50.464;30.612;2023-05-20T02:28:25;101084.00;;;15.30;98.91
58979;BME280;44763;50.464;30.612;2023-05-20T02:30:53;101084.74;;;15.29;99.17
58979;BME280;44763;50.464;30.612;2023-05-20T02:33:20;101085.42;;;15.31;99.06
58979;BME280;44763;50.464;30.612;2023-05-20T02:35:47;101086.29;;;15.35;98.44
58979;BME280;44763;50.464;30.612;2023-05-20T02:38:14;101086.98;;;15.42;97.86
58979;BME280;44763;50.464;30.612;2023-05-20T02:40:44;101087.52;;;15.42;97.39
58979;BME280;44763;50.464;30.612;2023-05-20T02:43:11;101090.54;;;15.43;97.15
58979;BME280;44763;50.464;30.612;2023-05-20T02:45:37;101093.58;;;15.37;97.32
58979;BME280;44763;50.464;30.612;2023-05-20T02:48:05;101099.37;;;15.39;97.15
58979;BME280;44763;50.464;30.612;2023-05-20T02:50:32;101097.71;;;15.51;96.55
58979;BME280;44763;50.464;30.612;2023-05-20T02:52:59;101102.66;;;15.61;96.20
58979;BME280;44763;50.464;30.612;2023-05-20T02:55:26;101103.69;;;15.72;95.57
58979;BME280;44763;50.464;30.612;2023-05-20T02:57:54;101109.34;;;15.75;94.47
58979;BME280;44763;50.464;30.612;2023-05-20T03:00:21;101113.32;;;15.76;93.91
58979;BME280;44763;50.464;30.612;2023-05-20T03:02:49;101113.77;;;15.78;93.56
58979;BME280;44763;50.464;30.612;2023-05-20T03:05:15;101118.37;;;15.83;92.97
58979;BME280;44763;50.464;30.612;2023-05-20T03:07:42;101114.76;;;16.07;91.57
58979;BME280;44763;50.464;30.612;2023-05-20T03:10:09;101114.77;;;16.33;89.65
58979;BME280;44763;50.464;30.612;2023-05-20T03:12:37;101115.46;;;16.50;87.92
58979;BME280;44763;50.464;30.612;2023-05-20T03:15:04;101113.37;;;16.67;86.47
58979;BME280;44763;50.464;30.612;2023-05-20T03:17:33;101119.64;;;16.85;85.10
58979;BME280;44763;50.464;30.612;2023-05-20T03:20:00;101120.63;;;16.93;85.11
58979;BME280;44763;50.464;30.612;2023-05-20T03:22:27;101125.63;;;17.23;84.66
58979;BME280;44763;50.464;30.612;2023-05-20T03:24:55;101127.02;;;17.62;81.22
58979;BME280;44763;50.464;30.612;2023-05-20T03:27:22;101120.98;;;17.84;79.37
58979;BME280;44763;50.464;30.612;2023-05-20T03:29:52;101121.69;;;17.99;77.29
58979;BME280;44763;50.464;30.612;2023-05-20T03:32:20;101122.41;;;17.99;76.36
58979;BME280;44763;50.464;30.612;2023-05-20T03:34:47;101123.55;;;18.05;76.28
58979;BME280;44763;50.464;30.612;2023-05-20T03:37:14;101119.63;;;18.34;74.33
58979;BME280;44763;50.464;30.612;2023-05-20T03:39:41;101123.98;;;18.44;73.14
58979;BME280;44763;50.464;30.612;2023-05-20T03:42:08;101121.87;;;18.63;72.17
58979;BME280;44763;50.464;30.612;2023-05-20T03:44:34;101117.70;;;18.78;71.28
58979;BME280;44763;50.464;30.612;2023-05-20T03:47:02;101121.77;;;18.78;70.28
58979;BME280;44763;50.464;30.612;2023-05-20T03:49:29;101120.80;;;18.67;70.52
58979;BME280;44763;50.464;30.612;2023-05-20T03:51:55;101125.62;;;18.76;70.61
58979;BME280;44763;50.464;30.612;2023-05-20T03:54:22;101120.77;;;18.92;69.60
58979;BME280;44763;50.464;30.612;2023-05-20T03:56:50;101124.34;;;18.99;69.11
58979;BME280;44763;50.464;30.612;2023-05-20T03:59:18;101124.71;;;19.12;68.72
58979;BME280;44763;50.464;30.612;2023-05-20T04:01:45;101120.77;;;19.35;67.74
58979;BME280;44763;50.464;30.612;2023-05-20T04:04:11;101123.73;;;19.46;66.87
58979;BME280;44763;50.464;30.612;2023-05-20T04:06:38;101125.73;;;19.52;66.51
58979;BME280;44763;50.464;30.612;2023-05-20T04:09:06;101130.41;;;19.57;66.16
58979;BME280;44763;50.464;30.612;2023-05-20T04:11:33;101133.02;;;19.66;65.77
58979;BME280;44763;50.464;30.612;2023-05-20T04:13:59;101135.72;;;19.77;65.63
58979;BME280;44763;50.464;30.612;2023-05-20T04:16:26;101139.00;;;20.07;64.10
58979;BME280;44763;50.464;30.612;2023-05-20T04:18:55;101134.61;;;20.14;64.04
58979;BME280;44763;50.464;30.612;2023-05-20T04:21:24;101139.16;;;20.29;62.99
58979;BME280;44763;50.464;30.612;2023-05-20T04:23:51;101134.67;;;20.28;63.47
58979;BME280;44763;50.464;30.612;2023-05-20T04:26:18;101134.02;;;20.42;62.92
58979;BME280;44763;50.464;30.612;2023-05-20T04:28:46;101135.31;;;20.67;62.12
58979;BME280;44763;50.464;30.612;2023-05-20T04:31:15;101139.59;;;20.77;61.45
58979;BME280;44763;50.464;30.612;2023-05-20T04:33:42;101141.98;;;20.82;61.18
58979;BME280;44763;50.464;30.612;2023-05-20T04:36:10;101141.52;;;20.93;61.25
58979;BME280;44763;50.464;30.612;2023-05-20T04:38:41;101143.66;;;21.22;60.58
58979;BME280;44763;50.464;30.612;2023-05-20T04:41:09;101147.86;;;21.49;58.81
58979;BME280;44763;50.464;30.612;2023-05-20T04:43:36;101143.23;;;21.27;58.68
58979;BME280;44763;50.464;30.612;2023-05-20T04:46:06;101154.40;;;21.02;60.06
58979;BME280;44763;50.464;30.612;2023-05-20T04:48:33;101154.05;;;20.83;61.07
58979;BME280;44763;50.464;30.612;2023-05-20T04:50:59;101155.52;;;20.91;60.88
58979;BME280;44763;50.464;30.612;2023-05-20T04:53:26;101152.96;;;20.81;61.36
58979;BME280;44763;50.464;30.612;2023-05-20T04:55:53;101141.92;;;20.82;61.49
58979;BME280;44763;50.464;30.612;2023-05-20T04:58:23;101150.05;;;21.04;60.63
58979;BME280;44763;50.464;30.612;2023-05-20T05:00:51;101149.25;;;21.07;60.51
58979;BME280;44763;50.464;30.612;2023-05-20T05:03:18;101152.95;;;21.08;60.34
58979;BME280;44763;50.464;30.612;2023-05-20T05:05:44;101151.14;;;21.07;60.36
58979;BME280;44763;50.464;30.612;2023-05-20T05:08:11;101137.43;;;20.95;60.55
58979;BME280;44763;50.464;30.612;2023-05-20T05:10:44;101149.63;;;21.09;60.75
58979;BME280;44763;50.464;30.612;2023-05-20T05:13:11;101146.30;;;21.26;59.75
58979;BME280;44763;50.464;30.612;2023-05-20T05:15:37;101145.81;;;21.40;59.46
58979;BME280;44763;50.464;30.612;2023-05-20T05:18:04;101141.13;;;21.66;58.42
58979;BME280;44763;50.464;30.612;2023-05-20T05:20:32;101143.58;;;22.00;57.20
58979;BME280;44763;50.464;30.612;2023-05-20T05:22:59;101147.52;;;22.20;55.88
58979;BME280;44763;50.464;30.612;2023-05-20T05:25:26;101149.31;;;22.05;55.08
58979;BME280;44763;50.464;30.612;2023-05-20T05:27:53;101154.55;;;21.70;55.74
58979;BME280;44763;50.464;30.612;2023-05-20T05:30:21;101149.36;;;21.41;56.33
58979;BME280;44763;50.464;30.612;2023-05-20T05:32:48;101151.83;;;21.27;56.63
58979;BME280;44763;50.464;30.612;2023-05-20T05:35:16;101156.30;;;21.20;56.67
58979;BME280;44763;50.464;30.612;2023-05-20T05:37:42;101155.79;;;21.18;56.47
58979;BME280;44763;50.464;30.612;2023-05-20T05:40:10;101156.00;;;21.22;56.50
58979;BME280;44763;50.464;30.612;2023-05-20T05:42:37;101157.42;;;21.27;56.16
58979;BME280;44763;50.464;30.612;2023-05-20T05:45:06;101155.75;;;21.48;55.81
58979;BME280;44763;50.464;30.612;2023-05-20T05:47:36;101153.11;;;21.60;54.53
58979;BME280;44763;50.464;30.612;2023-05-20T05:50:03;101154.08;;;21.54;54.46
58979;BME280;44763;50.464;30.612;2023-05-20T05:52:31;101141.01;;;21.51;55.23
58979;BME280;44763;50.464;30.612;2023-05-20T05:54:59;101143.41;;;21.82;53.86
58979;BME280;44763;50.464;30.612;2023-05-20T05:57:26;101154.61;;;22.13;52.48
58979;BME280;44763;50.464;30.612;2023-05-20T06:01:44;101154.63;;;22.17;51.99
58979;BME280;44763;50.464;30.612;2023-05-20T06:04:11;101148.10;;;22.23;51.67
58979;BME280;44763;50.464;30.612;2023-05-20T06:06:40;101153.73;;;22.47;50.46
58979;BME280;44763;50.464;30.612;2023-05-20T06:09:07;101155.23;;;22.70;49.34
58979;BME280;44763;50.464;30.612;2023-05-20T06:11:34;101151.91;;;22.60;49.16
58979;BME280;44763;50.464;30.612;2023-05-20T06:14:01;101150.64;;;22.21;49.53
58979;BME280;44763;50.464;30.612;2023-05-20T06:16:28;101150.41;;;22.03;50.17
58979;BME280;44763;50.464;30.612;2023-05-20T06:18:57;101150.22;;;21.95;50.05
58979;BME280;44763;50.464;30.612;2023-05-20T06:21:30;101143.05;;;21.82;50.55
58979;BME280;44763;50.464;30.612;2023-05-20T06:23:58;101141.65;;;21.89;50.01
58979;BME280;44763;50.464;30.612;2023-05-20T06:26:25;101141.02;;;21.96;49.57
58979;BME280;44763;50.464;30.612;2023-05-20T06:28:52;101145.08;;;22.02;49.28
58979;BME280;44763;50.464;30.612;2023-05-20T06:31:20;101140.77;;;22.13;48.90
58979;BME280;44763;50.464;30.612;2023-05-20T06:33:47;101141.97;;;22.07;48.62
58979;BME280;44763;50.464;30.612;2023-05-20T06:36:16;101144.21;;;22.02;48.43
58979;BME280;44763;50.464;30.612;2023-05-20T06:38:43;101147.23;;;22.00;48.55
58979;BME280;44763;50.464;30.612;2023-05-20T06:41:13;101149.70;;;21.93;48.22
58979;BME280;44763;50.464;30.612;2023-05-20T06:43:40;101146.69;;;21.92;47.90
58979;BME280;44763;50.464;30.612;2023-05-20T06:46:09;101149.60;;;22.09;46.98
58979;BME280;44763;50.464;30.612;2023-05-20T06:48:41;101149.88;;;22.00;46.53
58979;BME280;44763;50.464;30.612;2023-05-20T06:51:08;101151.23;;;22.03;46.67
58979;BME280;44763;50.464;30.612;2023-05-20T06:53:35;101143.16;;;22.11;46.83
58979;BME280;44763;50.464;30.612;2023-05-20T06:56:02;101147.67;;;22.14;46.51
58979;BME280;44763;50.464;30.612;2023-05-20T06:58:31;101138.23;;;22.14;46.10
58979;BME280;44763;50.464;30.612;2023-05-20T07:00:58;101138.12;;;22.14;45.69
58979;BME280;44763;50.464;30.612;2023-05-20T07:03:26;101141.45;;;22.24;45.83
58979;BME280;44763;50.464;30.612;2023-05-20T07:05:53;101139.09;;;22.56;44.97
58979;BME280;44763;50.464;30.612;2023-05-20T07:08:20;101144.16;;;22.69;44.34
58979;BME280;44763;50.464;30.612;2023-05-20T07:10:46;101139.77;;;22.68;44.21
58979;BME280;44763;50.464;30.612;2023-05-20T07:13:18;101134.09;;;22.67;43.80
58979;BME280;44763;50.464;30.612;2023-05-20T07:15:45;101132.55;;;22.66;44.07
58979;BME280;44763;50.464;30.612;2023-05-20T07:18:14;101135.05;;;22.73;43.47
58979;BME280;44763;50.464;30.612;2023-05-20T07:20:43;101132.45;;;22.83;43.63
58979;BME280;44763;50.464;30.612;2023-05-20T07:23:19;101149.31;;;22.84;42.76
58979;BME280;44763;50.464;30.612;2023-05-20T07:25:52;101141.15;;;22.53;42.76
58979;BME280;44763;50.464;30.612;2023-05-20T07:28:20;101140.85;;;22.27;43.22
58979;BME280;44763;50.464;30.612;2023-05-20T07:30:48;101147.70;;;22.15;43.32
58979;BME280;44763;50.464;30.612;2023-05-20T07:33:22;101146.66;;;22.02;42.99
58979;BME280;44763;50.464;30.612;2023-05-20T07:35:49;101137.27;;;21.84;42.85
58979;BME280;44763;50.464;30.612;2023-05-20T07:38:17;101142.30;;;21.68;42.89
58979;BME280;44763;50.464;30.612;2023-05-20T07:40:45;101140.88;;;21.55;42.81
58979;BME280;44763;50.464;30.612;2023-05-20T07:43:13;101151.17;;;21.50;42.84
58979;BME280;44763;50.464;30.612;2023-05-20T07:45:41;101147.90;;;21.42;43.62
58979;BME280;44763;50.464;30.612;2023-05-20T07:48:08;101148.92;;;21.36;43.94
58979;BME280;44763;50.464;30.612;2023-05-20T07:50:37;101148.02;;;21.26;44.40
58979;BME280;44763;50.464;30.612;2023-05-20T07:53:05;101149.23;;;21.12;44.84
58979;BME280;44763;50.464;30.612;2023-05-20T07:55:33;101142.07;;;21.01;45.33
58979;BME280;44763;50.464;30.612;2023-05-20T07:58:02;101151.55;;;21.03;45.51
58979;BME280;44763;50.464;30.612;2023-05-20T08:00:32;101144.02;;;21.00;45.28
58979;BME280;44763;50.464;30.612;2023-05-20T08:03:00;101135.04;;;20.89;45.46
58979;BME280;44763;50.464;30.612;2023-05-20T08:05:37;101135.16;;;20.92;44.74
58979;BME280;44763;50.464;30.612;2023-05-20T08:08:04;101138.75;;;21.00;43.00
58979;BME280;44763;50.464;30.612;2023-05-20T08:10:41;101133.27;;;21.05;43.15
58979;BME280;44763;50.464;30.612;2023-05-20T08:13:08;101131.88;;;21.08;43.12
58979;BME280;44763;50.464;30.612;2023-05-20T08:15:36;101131.28;;;21.11;43.00
58979;BME280;44763;50.464;30.612;2023-05-20T08:18:03;101133.38;;;21.12;42.75
58979;BME280;44763;50.464;30.612;2023-05-20T08:20:30;101132.59;;;21.19;42.62
58979;BME280;44763;50.464;30.612;2023-05-20T08:22:57;101127.73;;;21.26;42.41
58979;BME280;44763;50.464;30.612;2023-05-20T08:25:23;101130.81;;;21.28;42.66
58979;BME280;44763;50.464;30.612;2023-05-20T08:27:51;101131.39;;;21.32;42.26
58979;BME280;44763;50.464;30.612;2023-05-20T08:30:18;101132.96;;;21.27;41.85
58979;BME280;44763;50.464;30.612;2023-05-20T08:32:45;101128.67;;;21.21;41.92
58979;BME280;44763;50.464;30.612;2023-05-20T08:35:14;101126.13;;;21.14;41.94
58979;BME280;44763;50.464;30.612;2023-05-20T08:37:41;101125.96;;;21.08;41.78
58979;BME280;44763;50.464;30.612;2023-05-20T08:40:08;101133.60;;;21.08;41.73
58979;BME280;44763;50.464;30.612;2023-05-20T08:42:35;101124.79;;;21.17;41.82
58979;BME280;44763;50.464;30.612;2023-05-20T08:45:03;101119.61;;;21.19;40.98
58979;BME280;44763;50.464;30.612;2023-05-20T08:47:30;101116.97;;;21.14;39.79
58979;BME280;44763;50.464;30.612;2023-05-20T08:49:57;101126.22;;;21.28;40.26
58979;BME280;44763;50.464;30.612;2023-05-20T08:52:24;101117.48;;;21.42;39.02
58979;BME280;44763;50.464;30.612;2023-05-20T08:54:52;101105.01;;;21.39;39.05
58979;BME280;44763;50.464;30.612;2023-05-20T08:57:19;101105.61;;;21.39;39.37
58979;BME280;44763;50.464;30.612;2023-05-20T08:59:46;101112.86;;;21.39;39.10
58979;BME280;44763;50.464;30.612;2023-05-20T09:02:13;101112.77;;;21.37;38.85
58979;BME280;44763;50.464;30.612;2023-05-20T09:04:40;101108.19;;;21.35;38.68
58979;BME280;44763;50.464;30.612;2023-05-20T09:07:07;101111.38;;;21.38;38.32
58979;BME280;44763;50.464;30.612;2023-05-20T09:09:34;101114.95;;;21.32;37.89
58979;BME280;44763;50.464;30.612;2023-05-20T09:12:02;101107.87;;;21.30;38.59
58979;BME280;44763;50.464;30.612;2023-05-20T09:14:30;101108.81;;;21.31;38.59
58979;BME280;44763;50.464;30.612;2023-05-20T09:16:58;101114.61;;;21.29;38.37
58979;BME280;44763;50.464;30.612;2023-05-20T09:19:25;101112.42;;;21.28;38.23
58979;BME280;44763;50.464;30.612;2023-05-20T09:21:53;101115.34;;;21.24;38.56
58979;BME280;44763;50.464;30.612;2023-05-20T09:24:24;101116.63;;;21.29;38.86
58979;BME280;44763;50.464;30.612;2023-05-20T09:26:52;101115.56;;;21.33;38.63
58979;BME280;44763;50.464;30.612;2023-05-20T09:29:19;101118.48;;;21.27;38.31
58979;BME280;44763;50.464;30.612;2023-05-20T09:31:48;101120.57;;;21.23;38.19
58979;BME280;44763;50.464;30.612;2023-05-20T09:34:16;101117.80;;;21.20;38.32
58979;BME280;44763;50.464;30.612;2023-05-20T09:36:43;101110.99;;;21.18;38.87
58979;BME280;44763;50.464;30.612;2023-05-20T09:39:15;101119.80;;;21.17;39.47
58979;BME280;44763;50.464;30.612;2023-05-20T09:41:51;101119.21;;;21.18;40.11
58979;BME280;44763;50.464;30.612;2023-05-20T09:44:20;101127.29;;;21.20;38.91
58979;BME280;44763;50.464;30.612;2023-05-20T09:46:49;101114.55;;;21.23;37.71
58979;BME280;44763;50.464;30.612;2023-05-20T09:49:17;101123.56;;;21.24;37.73
58979;BME280;44763;50.464;30.612;2023-05-20T09:51:46;101115.98;;;21.24;38.58
58979;BME280;44763;50.464;30.612;2023-05-20T09:54:14;101111.39;;;21.33;38.95
58979;BME280;44763;50.464;30.612;2023-05-20T09:56:45;101112.40;;;21.37;38.84
58979;BME280;44763;50.464;30.612;2023-05-20T09:59:14;101108.36;;;21.31;39.10
58979;BME280;44763;50.464;30.612;2023-05-20T10:01:43;101103.30;;;21.25;40.09
58979;BME280;44763;50.464;30.612;2023-05-20T10:04:12;101103.25;;;21.30;41.06
58979;BME280;44763;50.464;30.612;2023-05-20T10:09:49;101100.74;;;21.54;40.76
58979;BME280;44763;50.464;30.612;2023-05-20T10:12:28;101098.60;;;21.64;39.85
58979;BME280;44763;50.464;30.612;2023-05-20T10:15:17;101109.10;;;21.65;39.69
58979;BME280;44763;50.464;30.612;2023-05-20T10:20:45;101096.27;;;21.61;39.90
58979;BME280;44763;50.464;30.612;2023-05-20T10:23:23;101088.96;;;21.53;40.13
58979;BME280;44763;50.464;30.612;2023-05-20T10:25:52;101090.73;;;21.58;40.15
58979;BME280;44763;50.464;30.612;2023-05-20T10:28:30;101093.09;;;21.50;39.70
58979;BME280;44763;50.464;30.612;2023-05-20T10:30:58;101093.39;;;21.52;39.37
58979;BME280;44763;50.464;30.612;2023-05-20T10:33:26;101095.02;;;21.51;39.55
58979;BME280;44763;50.464;30.612;2023-05-20T10:35:58;101098.77;;;21.47;40.13
58979;BME280;44763;50.464;30.612;2023-05-20T10:38:25;101083.45;;;21.35;40.51
58979;BME280;44763;50.464;30.612;2023-05-20T10:40:52;101088.55;;;21.42;40.07
58979;BME280;44763;50.464;30.612;2023-05-20T10:43:26;101080.19;;;21.41;40.39
58979;BME280;44763;50.464;30.612;2023-05-20T10:45:56;101081.45;;;21.47;40.85
58979;BME280;44763;50.464;30.612;2023-05-20T10:48:28;101085.93;;;21.56;40.18
58979;BME280;44763;50.464;30.612;2023-05-20T10:51:01;101085.37;;;21.55;40.12
58979;BME280;44763;50.464;30.612;2023-05-20T10:53:39;101087.20;;;21.49;40.26
58979;BME280;44763;50.464;30.612;2023-05-20T10:56:16;101079.73;;;21.51;39.89
58979;BME280;44763;50.464;30.612;2023-05-20T10:58:44;101086.27;;;21.56;39.78
58979;BME280;44763;50.464;30.612;2023-05-20T11:01:11;101093.65;;;21.54;39.25
58979;BME280;44763;50.464;30.612;2023-05-20T11:03:40;101085.18;;;21.51;39.06
58979;BME280;44763;50.464;30.612;2023-05-20T11:06:12;101088.13;;;21.46;39.62
58979;BME280;44763;50.464;30.612;2023-05-20T11:08:43;101075.77;;;21.46;39.69
58979;BME280;44763;50.464;30.612;2023-05-20T11:11:11;101081.16;;;21.47;39.43
58979;BME280;44763;50.464;30.612;2023-05-20T11:13:39;101086.86;;;21.51;39.13
58979;BME280;44763;50.464;30.612;2023-05-20T11:16:06;101087.35;;;21.56;39.34
58979;BME280;44763;50.464;30.612;2023-05-20T11:18:33;101080.81;;;21.61;39.38
58979;BME280;44763;50.464;30.612;2023-05-20T11:21:01;101073.88;;;21.71;39.70
58979;BME280;44763;50.464;30.612;2023-05-20T11:23:28;101075.64;;;21.75;39.94
58979;BME280;44763;50.464;30.612;2023-05-20T11:25:56;101080.49;;;21.80;39.32
58979;BME280;44763;50.464;30.612;2023-05-20T11:28:23;101082.36;;;21.72;39.25
58979;BME280;44763;50.464;30.612;2023-05-20T11:30:54;101083.98;;;21.68;39.36
58979;BME280;44763;50.464;30.612;2023-05-20T11:33:24;101083.17;;;21.75;39.09
58979;BME280;44763;50.464;30.612;2023-05-20T11:35:52;101083.14;;;21.70;39.46
58979;BME280;44763;50.464;30.612;2023-05-20T11:38:20;101083.16;;;21.62;39.47
58979;BME280;44763;50.464;30.612;2023-05-20T11:40:52;101078.92;;;21.62;39.74
58979;BME280;44763;50.464;30.612;2023-05-20T11:43:22;101076.70;;;21.68;39.76
58979;BME280;44763;50.464;30.612;2023-05-20T11:45:54;101074.30;;;21.70;39.80
58979;BME280;44763;50.464;30.612;2023-05-20T11:48:23;101072.48;;;21.76;39.56
58979;BME280;44763;50.464;30.612;2023-05-20T11:50:52;101070.46;;;21.72;39.58
58979;BME280;44763;50.464;30.612;2023-05-20T11:53:20;101073.02;;;21.68;39.90
58979;BME280;44763;50.464;30.612;2023-05-20T11:58:19;101067.56;;;21.64;39.66
58979;BME280;44763;50.464;30.612;2023-05-20T12:00:46;101060.33;;;21.68;39.88
58979;BME280;44763;50.464;30.612;2023-05-20T12:03:22;101060.28;;;21.75;39.71
58979;BME280;44763;50.464;30.612;2023-05-20T12:05:50;101062.77;;;21.72;39.50
58979;BME280;44763;50.464;30.612;2023-05-20T12:08:17;101062.30;;;21.76;39.17
58979;BME280;44763;50.464;30.612;2023-05-20T12:10:43;101064.14;;;21.73;39.12
58979;BME280;44763;50.464;30.612;2023-05-20T12:13:10;101057.48;;;21.75;39.49
58979;BME280;44763;50.464;30.612;2023-05-20T12:15:39;101054.95;;;21.78;39.10
58979;BME280;44763;50.464;30.612;2023-05-20T12:18:06;101052.77;;;21.74;38.93
58979;BME280;44763;50.464;30.612;2023-05-20T12:20:33;101050.48;;;21.83;38.78
58979;BME280;44763;50.464;30.612;2023-05-20T12:23:02;101048.49;;;21.88;38.77
58979;BME280;44763;50.464;30.612;2023-05-20T12:25:32;101043.96;;;21.90;38.25
58979;BME280;44763;50.464;30.612;2023-05-20T12:28:00;101041.39;;;21.88;37.60
58979;BME280;44763;50.464;30.612;2023-05-20T12:30:28;101040.92;;;21.75;38.13
58979;BME280;44763;50.464;30.612;2023-05-20T12:32:54;101043.29;;;21.72;38.34
58979;BME280;44763;50.464;30.612;2023-05-20T12:35:36;101044.03;;;21.68;38.27
58979;BME280;44763;50.464;30.612;2023-05-20T12:38:03;101036.94;;;21.69;38.08
58979;BME280;44763;50.464;30.612;2023-05-20T12:40:30;101042.13;;;21.64;38.45
58979;BME280;44763;50.464;30.612;2023-05-20T12:42:58;101034.23;;;21.62;38.59
58979;BME280;44763;50.464;30.612;2023-05-20T12:45:25;101042.55;;;21.60;38.17
58979;BME280;44763;50.464;30.612;2023-05-20T12:47:53;101043.70;;;21.54;37.93
58979;BME280;44763;50.464;30.612;2023-05-20T12:50:21;101038.13;;;21.55;37.78
58979;BME280;44763;50.464;30.612;2023-05-20T12:52:47;101032.89;;;21.54;37.73